createdAt,value
2018-12-06T00:02:35.466Z,14.60
2018-12-06T00:05:14.582Z,14.20
2018-12-06T00:11:09.812Z,12.57
2018-12-06T00:13:42.346Z,12.17
2018-12-06T00:16:18.069Z,14.03
2018-12-06T00:19:08.394Z,12.33
2018-12-06T00:21:54.553Z,15.57
2018-12-06T00:24:32.869Z,15.27
2018-12-06T00:27:11.730Z,15.20
2018-12-06T00:29:51.438Z,15.10
2018-12-06T00:32:22.499Z,16.27
2018-12-06T00:34:57.165Z,14.17
2018-12-06T00:37:34.986Z,14.83
2018-12-06T00:40:13.825Z,15.63
2018-12-06T00:42:44.996Z,15.53
2018-12-06T00:45:19.724Z,14.27
2018-12-06T00:47:50.846Z,13.87
2018-12-06T00:50:29.743Z,14.97
2018-12-06T00:53:02.067Z,14.83
2018-12-06T00:55:32.014Z,16.07
2018-12-06T00:58:03.197Z,16.10
2018-12-06T01:00:35.481Z,13.63
2018-12-06T01:03:07.381Z,14.37
2018-12-06T01:05:45.908Z,15.37
2018-12-06T01:08:28.656Z,14.10
2018-12-06T01:10:59.522Z,15.50
2018-12-06T01:13:30.758Z,16.13
2018-12-06T01:16:00.586Z,15.03
2018-12-06T01:18:31.716Z,15.33
2018-12-06T01:21:05.626Z,13.80
2018-12-06T01:23:45.339Z,12.73
2018-12-06T01:26:16.788Z,14.87
2018-12-06T01:28:51.418Z,13.53
2018-12-06T01:31:31.171Z,15.00
2018-12-06T01:34:06.178Z,15.97
2018-12-06T01:36:45.105Z,14.70
2018-12-06T01:39:27.671Z,15.63
2018-12-06T01:41:57.320Z,15.43
2018-12-06T01:44:35.741Z,17.37
2018-12-06T01:47:14.907Z,17.30
2018-12-06T01:49:51.048Z,16.27
2018-12-06T01:52:22.182Z,19.03
2018-12-06T01:54:56.058Z,14.20
2018-12-06T01:57:28.120Z,15.03
2018-12-06T01:59:59.275Z,15.17
2018-12-06T02:02:31.262Z,17.40
2018-12-06T02:05:08.199Z,14.77
2018-12-06T02:07:39.341Z,15.63
2018-12-06T02:10:12.265Z,18.13
2018-12-06T02:12:42.198Z,14.67
2018-12-06T02:15:17.077Z,14.90
2018-12-06T02:17:56.073Z,17.83
2018-12-06T02:20:27.096Z,18.73
2018-12-06T02:23:14.009Z,17.07
2018-12-06T02:25:53.878Z,15.83
2018-12-06T02:28:31.735Z,17.00
2018-12-06T02:31:09.660Z,17.47
2018-12-06T02:33:43.784Z,18.60
2018-12-06T02:36:17.643Z,18.10
2018-12-06T02:38:56.949Z,15.77
2018-12-06T02:41:31.651Z,18.60
2018-12-06T02:44:03.092Z,16.43
2018-12-06T02:46:37.731Z,20.90
2018-12-06T02:49:07.194Z,17.57
2018-12-06T02:51:38.964Z,18.30
2018-12-06T02:54:10.223Z,20.03
2018-12-06T02:56:41.308Z,20.57
2018-12-06T02:59:11.227Z,18.40
2018-12-06T03:01:42.378Z,18.13
2018-12-06T03:04:12.386Z,18.90
2018-12-06T03:06:43.253Z,21.60
2018-12-06T03:09:13.184Z,21.77
2018-12-06T03:11:44.633Z,20.97
2018-12-06T03:14:23.257Z,19.57
2018-12-06T03:17:05.944Z,20.67
2018-12-06T03:19:44.407Z,21.63
2018-12-06T03:22:20.229Z,26.20
2018-12-06T03:25:09.392Z,23.53
2018-12-06T03:27:48.400Z,22.80
2018-12-06T03:30:26.541Z,24.20
2018-12-06T03:33:00.017Z,19.20
2018-12-06T03:35:31.074Z,25.97
2018-12-06T03:38:10.122Z,27.60
2018-12-06T03:40:40.593Z,21.53
2018-12-06T03:43:11.963Z,23.30
2018-12-06T03:45:46.680Z,22.87
2018-12-06T03:48:24.432Z,20.23
2018-12-06T03:50:55.990Z,22.23
2018-12-06T03:53:27.049Z,22.57
2018-12-06T03:55:59.132Z,22.90
2018-12-06T03:58:32.836Z,20.43
2018-12-06T04:01:02.741Z,22.10
2018-12-06T04:03:35.692Z,23.93
2018-12-06T04:06:14.441Z,24.63
2018-12-06T04:08:54.374Z,21.57
2018-12-06T04:11:24.330Z,21.53
2018-12-06T04:13:54.172Z,21.23
2018-12-06T04:16:33.845Z,23.63
2018-12-06T04:19:07.015Z,23.97
2018-12-06T04:21:41.063Z,22.70
2018-12-06T04:24:15.064Z,20.83
2018-12-06T04:26:46.296Z,19.37
2018-12-06T04:29:20.117Z,22.50
2018-12-06T04:31:54.476Z,20.60
2018-12-06T04:34:32.567Z,24.33
2018-12-06T04:39:57.838Z,21.13
2018-12-06T04:42:36.718Z,22.73
2018-12-06T04:45:11.190Z,23.73
2018-12-06T04:47:43.835Z,21.73
2018-12-06T04:50:21.829Z,20.97
2018-12-06T04:52:53.022Z,19.17
2018-12-06T04:55:31.698Z,19.30
2018-12-06T04:58:10.915Z,21.00
2018-12-06T05:00:53.440Z,24.00
2018-12-06T05:03:35.424Z,21.53
2018-12-06T05:06:14.857Z,19.60
2018-12-06T05:08:55.503Z,19.30
2018-12-06T05:11:28.362Z,20.23
2018-12-06T05:14:13.779Z,20.43
2018-12-06T05:16:53.129Z,20.23
2018-12-06T05:19:31.125Z,19.70
2018-12-06T05:22:03.430Z,19.50
2018-12-06T05:24:43.231Z,19.70
2018-12-06T05:27:16.473Z,19.53
2018-12-06T05:29:48.727Z,20.50
2018-12-06T05:32:21.941Z,20.37
2018-12-06T05:35:00.721Z,18.87
2018-12-06T05:37:39.850Z,22.37
2018-12-06T05:40:25.439Z,21.63
2018-12-06T05:42:59.836Z,18.47
2018-12-06T05:45:33.067Z,18.27
2018-12-06T05:48:12.002Z,20.13
2018-12-06T05:50:50.794Z,22.37
2018-12-06T05:53:24.112Z,21.57
2018-12-06T05:55:57.093Z,21.13
2018-12-06T05:58:29.183Z,22.17
2018-12-06T06:01:08.646Z,22.67
2018-12-06T06:03:40.988Z,21.23
2018-12-06T06:06:20.691Z,22.03
2018-12-06T06:08:54.141Z,20.63
2018-12-06T06:11:32.921Z,22.33
2018-12-06T06:14:24.811Z,19.43
2018-12-06T06:17:03.646Z,23.33
2018-12-06T06:19:37.223Z,21.80
2018-12-06T06:22:08.440Z,21.03
2018-12-06T06:24:43.469Z,22.40
2018-12-06T06:27:22.385Z,19.43
2018-12-06T06:29:57.502Z,22.90
2018-12-06T06:32:28.810Z,22.83
2018-12-06T06:35:07.829Z,23.73
2018-12-06T06:37:45.777Z,25.37
2018-12-06T06:40:16.778Z,20.73
2018-12-06T06:42:48.716Z,20.80
2018-12-06T06:45:18.699Z,20.57
2018-12-06T06:47:51.849Z,20.43
2018-12-06T06:50:31.519Z,19.57
2018-12-06T06:53:05.653Z,19.47
2018-12-06T06:55:44.682Z,21.87
2018-12-06T06:58:16.905Z,18.23
2018-12-06T07:00:54.770Z,18.53
2018-12-06T07:03:29.004Z,21.50
2018-12-06T07:08:55.817Z,20.77
2018-12-06T07:11:34.396Z,23.40
2018-12-06T07:14:13.201Z,20.30
2018-12-06T07:19:38.438Z,20.70
2018-12-06T07:25:01.946Z,22.87
2018-12-06T07:27:41.426Z,20.03
2018-12-06T07:30:13.646Z,22.23
2018-12-06T07:32:45.686Z,19.70
2018-12-06T07:35:24.649Z,22.43
2018-12-06T07:38:03.754Z,22.77
2018-12-06T07:40:41.499Z,21.80
2018-12-06T07:43:13.810Z,25.97
2018-12-06T07:45:47.034Z,20.13
2018-12-06T07:48:39.522Z,22.00
2018-12-06T07:51:13.599Z,25.30
2018-12-06T07:53:46.644Z,24.57
2018-12-06T07:56:18.986Z,21.40
2018-12-06T07:58:51.919Z,24.90
2018-12-06T08:01:29.688Z,25.63
2018-12-06T08:04:01.695Z,21.97
2018-12-06T08:06:39.529Z,28.63
2018-12-06T08:09:13.460Z,27.30
2018-12-06T08:11:44.742Z,24.87
2018-12-06T08:14:22.483Z,24.07
2018-12-06T08:17:01.419Z,31.13
2018-12-06T08:19:36.560Z,27.67
2018-12-06T08:22:08.744Z,25.37
2018-12-06T08:24:39.808Z,28.47
2018-12-06T08:27:14.589Z,28.00
2018-12-06T08:29:46.909Z,27.37
2018-12-06T08:32:19.079Z,26.97
2018-12-06T08:34:59.103Z,26.67
2018-12-06T08:37:39.056Z,25.73
2018-12-06T08:40:13.071Z,24.87
2018-12-06T08:42:58.342Z,32.73
2018-12-06T08:45:31.243Z,25.13
2018-12-06T08:48:10.033Z,27.13
2018-12-06T08:50:41.443Z,21.93
2018-12-06T08:53:13.307Z,22.97
2018-12-06T08:55:52.800Z,25.03
2018-12-06T08:58:30.756Z,25.27
2018-12-06T09:01:09.612Z,23.37
2018-12-06T09:03:42.806Z,21.17
2018-12-06T09:06:17.731Z,25.83
2018-12-06T09:08:49.847Z,24.23
2018-12-06T09:11:27.655Z,25.07
2018-12-06T09:14:06.743Z,24.17
2018-12-06T09:16:38.699Z,24.97
2018-12-06T09:19:16.451Z,25.87
2018-12-06T09:21:48.947Z,25.40
2018-12-06T09:24:27.577Z,24.93
2018-12-06T09:27:01.864Z,27.77
2018-12-06T09:29:41.033Z,28.83
2018-12-06T09:32:16.484Z,27.83
2018-12-06T09:37:48.255Z,27.90
2018-12-06T09:43:12.841Z,26.30
2018-12-06T09:45:50.689Z,23.63
2018-12-06T09:48:21.224Z,26.60
2018-12-06T09:51:00.298Z,28.63
2018-12-06T09:53:32.367Z,29.33
2018-12-06T09:56:17.688Z,27.60
2018-12-06T09:58:56.102Z,29.33
2018-12-06T10:01:34.264Z,28.33
2018-12-06T10:04:06.414Z,25.43
2018-12-06T10:06:45.399Z,31.93
2018-12-06T10:09:19.662Z,27.27
2018-12-06T10:11:54.178Z,33.10
2018-12-06T10:14:32.703Z,29.33
2018-12-06T10:17:10.723Z,31.83
2018-12-06T10:19:48.713Z,30.50
2018-12-06T10:22:35.292Z,29.23
2018-12-06T10:25:13.777Z,31.53
2018-12-06T10:27:54.635Z,35.90
2018-12-06T10:30:24.229Z,32.67
2018-12-06T10:33:08.650Z,31.03
2018-12-06T10:35:48.151Z,31.30
2018-12-06T10:38:26.960Z,32.60
2018-12-06T10:41:12.807Z,32.03
2018-12-06T10:43:44.292Z,34.70
2018-12-06T10:46:18.253Z,33.47
2018-12-06T10:48:52.484Z,26.50
2018-12-06T10:51:33.069Z,24.43
2018-12-06T10:54:10.977Z,26.87
2018-12-06T10:59:42.495Z,24.57
2018-12-06T11:02:20.092Z,30.67
2018-12-06T11:04:58.098Z,26.47
2018-12-06T11:07:36.800Z,30.40
2018-12-06T11:10:07.906Z,26.20
2018-12-06T11:12:38.951Z,21.93
2018-12-06T11:15:17.927Z,28.20
2018-12-06T11:18:03.407Z,21.03
2018-12-06T11:20:37.669Z,25.90
2018-12-06T11:23:08.814Z,22.77
2018-12-06T11:25:47.240Z,24.47
2018-12-06T11:28:18.732Z,17.53
2018-12-06T11:30:57.539Z,21.60
2018-12-06T11:33:28.786Z,22.10
2018-12-06T11:36:06.694Z,26.20
2018-12-06T11:38:38.932Z,25.90
2018-12-06T11:41:18.621Z,22.70
2018-12-06T11:43:53.510Z,22.60
2018-12-06T11:46:25.953Z,22.73
2018-12-06T11:51:54.192Z,24.03
2018-12-06T11:54:28.322Z,24.37
2018-12-06T11:57:03.151Z,21.27
2018-12-06T11:59:50.142Z,20.30
2018-12-06T12:02:21.300Z,21.40
2018-12-06T12:07:53.922Z,26.90
2018-12-06T12:10:35.436Z,28.07
2018-12-06T12:13:07.048Z,31.27
2018-12-06T12:15:38.898Z,20.83
2018-12-06T12:18:10.350Z,24.97
2018-12-06T12:20:49.249Z,19.13
2018-12-06T12:23:20.418Z,20.80
2018-12-06T12:25:58.145Z,23.63
2018-12-06T12:28:36.166Z,20.63
2018-12-06T12:31:07.344Z,23.23
2018-12-06T12:33:38.490Z,20.37
2018-12-06T12:36:16.297Z,22.37
2018-12-06T12:38:45.945Z,19.40
2018-12-06T12:41:27.007Z,20.27
2018-12-06T12:44:06.846Z,17.23
2018-12-06T12:46:42.261Z,16.03
2018-12-06T12:49:24.085Z,18.20
2018-12-06T12:51:58.910Z,19.37
2018-12-06T12:54:28.841Z,23.17
2018-12-06T12:57:02.742Z,17.47
2018-12-06T12:59:40.525Z,18.27
2018-12-06T13:02:12.957Z,20.53
2018-12-06T13:05:00.650Z,22.60
2018-12-06T13:07:39.383Z,27.47
2018-12-06T13:10:15.524Z,21.03
2018-12-06T13:12:54.539Z,18.37
2018-12-06T13:15:33.880Z,19.57
2018-12-06T13:18:12.468Z,19.07
2018-12-06T13:20:45.048Z,19.43
2018-12-06T13:23:17.868Z,20.07
2018-12-06T13:25:50.035Z,21.47
2018-12-06T13:28:28.654Z,25.53
2018-12-06T13:31:01.005Z,22.40
2018-12-06T13:33:35.806Z,21.90
2018-12-06T13:36:13.975Z,25.47
2018-12-06T13:38:44.187Z,20.53
2018-12-06T13:41:23.752Z,20.57
2018-12-06T13:43:57.649Z,20.03
2018-12-06T13:46:37.740Z,18.00
2018-12-06T13:49:10.670Z,20.63
2018-12-06T13:51:48.895Z,18.80
2018-12-06T13:54:26.887Z,18.20
2018-12-06T13:56:52.998Z,20.67
2018-12-06T13:59:27.011Z,19.63
2018-12-06T14:01:56.997Z,22.90
2018-12-06T14:04:36.625Z,21.60
2018-12-06T14:07:06.571Z,25.03
2018-12-06T14:09:45.432Z,19.03
2018-12-06T14:12:17.761Z,22.93
2018-12-06T14:14:51.043Z,19.63
2018-12-06T14:17:30.621Z,17.07
2018-12-06T14:20:10.706Z,25.23
2018-12-06T14:22:44.771Z,17.97
2018-12-06T14:25:24.560Z,17.20
2018-12-06T14:28:11.159Z,15.57
2018-12-06T14:30:42.028Z,20.03
2018-12-06T14:33:12.857Z,15.23
2018-12-06T14:38:44.477Z,20.93
2018-12-06T14:41:34.181Z,24.17
2018-12-06T14:44:11.876Z,20.30
2018-12-06T14:46:43.020Z,20.30
2018-12-06T14:49:21.971Z,20.93
2018-12-06T14:51:57.207Z,18.40
2018-12-06T14:54:28.093Z,26.57
2018-12-06T14:56:58.025Z,20.47
2018-12-06T14:59:28.815Z,19.80
2018-12-06T15:02:10.197Z,22.80
2018-12-06T15:04:49.637Z,18.43
2018-12-06T15:07:22.119Z,20.53
2018-12-06T15:10:00.989Z,22.13
2018-12-06T15:12:32.124Z,18.57
2018-12-06T15:15:06.225Z,19.43
2018-12-06T15:17:46.313Z,17.70
2018-12-06T15:23:12.952Z,17.40
2018-12-06T15:25:52.519Z,18.33
2018-12-06T15:28:31.866Z,12.37
2018-12-06T15:31:09.987Z,16.53
2018-12-06T15:33:45.241Z,15.33
2018-12-06T15:36:25.984Z,16.30
2018-12-06T15:38:57.300Z,12.07
2018-12-06T15:41:35.237Z,14.37
2018-12-06T15:44:10.263Z,17.00
2018-12-06T15:46:44.298Z,15.60
2018-12-06T15:49:19.525Z,17.87
2018-12-06T15:51:53.354Z,14.73
2018-12-06T15:54:32.277Z,14.97
2018-12-06T15:57:19.063Z,19.37
2018-12-06T15:59:57.296Z,11.27
2018-12-06T16:02:28.532Z,16.77
2018-12-06T16:05:00.612Z,15.33
2018-12-06T16:07:41.326Z,16.57
2018-12-06T16:10:15.705Z,20.30
2018-12-06T16:12:51.915Z,17.63
2018-12-06T16:15:31.038Z,16.77
2018-12-06T16:18:09.968Z,15.90
2018-12-06T16:20:43.426Z,13.30
2018-12-06T16:23:16.400Z,14.50
2018-12-06T16:26:02.233Z,13.40
2018-12-06T16:28:33.784Z,14.17
2018-12-06T16:31:13.296Z,14.17
2018-12-06T16:33:46.375Z,13.40
2018-12-06T16:36:28.808Z,16.37
2018-12-06T16:38:58.485Z,17.30
2018-12-06T16:41:44.823Z,17.90
2018-12-06T16:44:25.193Z,17.77
2018-12-06T16:47:01.164Z,17.87
2018-12-06T16:49:34.143Z,16.93
2018-12-06T16:52:06.708Z,12.53
2018-12-06T16:54:46.059Z,15.43
2018-12-06T16:57:27.085Z,17.50
2018-12-06T17:00:14.605Z,17.10
2018-12-06T17:02:48.708Z,16.90
2018-12-06T17:05:19.650Z,13.10
2018-12-06T17:07:50.506Z,12.70
2018-12-06T17:13:16.760Z,25.80
2018-12-06T17:15:48.106Z,17.40
2018-12-06T17:18:27.837Z,15.53
2018-12-06T17:21:02.995Z,14.03
2018-12-06T17:23:35.265Z,16.37
2018-12-06T17:26:14.969Z,16.33
2018-12-06T17:28:50.036Z,20.00
2018-12-06T17:31:24.837Z,22.07
2018-12-06T17:33:57.015Z,18.90
2018-12-06T17:36:27.962Z,15.13
2018-12-06T17:39:07.093Z,17.03
2018-12-06T17:41:47.634Z,17.33
2018-12-06T17:44:37.658Z,12.27
2018-12-06T17:47:11.940Z,13.80
2018-12-06T17:49:51.875Z,12.77
2018-12-06T17:52:23.393Z,11.47
2018-12-06T17:54:56.557Z,12.97
2018-12-06T17:57:27.281Z,9.47
2018-12-06T17:59:59.469Z,9.50
2018-12-06T18:02:31.534Z,10.57
2018-12-06T18:05:10.518Z,10.40
2018-12-06T18:07:41.890Z,11.43
2018-12-06T18:10:29.193Z,14.07
2018-12-06T18:13:01.273Z,11.40
2018-12-06T18:15:31.576Z,13.10
2018-12-06T18:18:16.975Z,13.47
2018-12-06T18:20:56.507Z,12.63
2018-12-06T18:23:28.613Z,10.43
2018-12-06T18:26:14.762Z,9.73
2018-12-06T18:28:45.404Z,11.43
2018-12-06T18:31:24.423Z,12.43
2018-12-06T18:33:58.203Z,10.40
2018-12-06T18:36:33.165Z,12.27
2018-12-06T18:39:12.301Z,10.60
2018-12-06T18:41:47.232Z,14.03
2018-12-06T18:44:27.661Z,15.37
2018-12-06T18:47:07.666Z,15.93
2018-12-06T18:49:46.952Z,17.10
2018-12-06T18:52:19.293Z,16.23
2018-12-06T18:54:54.360Z,16.73
2018-12-06T18:57:26.959Z,18.70
2018-12-06T18:59:57.992Z,18.53
2018-12-06T19:02:31.181Z,19.40
2018-12-06T19:05:22.974Z,20.67
2018-12-06T19:10:48.801Z,19.43
2018-12-06T19:13:20.967Z,19.67
2018-12-06T19:15:59.959Z,18.90
2018-12-06T19:18:37.879Z,18.93
2018-12-06T19:21:16.688Z,21.30
2018-12-06T19:23:58.512Z,19.97
2018-12-06T19:26:37.783Z,19.17
2018-12-06T19:29:10.730Z,19.73
2018-12-06T19:31:49.804Z,23.43
2018-12-06T19:34:22.836Z,19.83
2018-12-06T19:36:54.466Z,22.70
2018-12-06T19:39:39.154Z,21.00
2018-12-06T19:42:14.391Z,21.20
2018-12-06T19:44:53.396Z,18.93
2018-12-06T19:47:29.177Z,21.10
2018-12-06T19:50:08.724Z,20.33
2018-12-06T19:52:41.302Z,20.10
2018-12-06T19:55:17.381Z,20.97
2018-12-06T19:57:57.927Z,18.73
2018-12-06T20:00:38.177Z,19.10
2018-12-06T20:03:11.774Z,24.87
2018-12-06T20:05:52.428Z,20.80
2018-12-06T20:08:34.470Z,19.23
2018-12-06T20:11:09.087Z,26.47
2018-12-06T20:13:41.940Z,20.17
2018-12-06T20:16:13.965Z,19.33
2018-12-06T20:18:51.883Z,17.13
2018-12-06T20:21:31.545Z,18.80
2018-12-06T20:24:10.983Z,17.30
2018-12-06T20:26:49.907Z,15.53
2018-12-06T20:29:28.515Z,16.43
2018-12-06T20:31:59.703Z,14.63
2018-12-06T20:34:40.237Z,21.13
2018-12-06T20:40:07.761Z,20.53
2018-12-06T20:42:41.795Z,17.57
2018-12-06T20:45:22.444Z,16.43
2018-12-06T20:48:05.527Z,14.10
2018-12-06T20:50:49.335Z,22.10
2018-12-06T20:53:25.710Z,18.10
2018-12-06T20:55:58.971Z,16.57
2018-12-06T20:58:37.520Z,23.60
2018-12-06T21:01:10.840Z,14.97
2018-12-06T21:03:43.951Z,14.40
2018-12-06T21:06:24.553Z,13.97
2018-12-06T21:09:11.558Z,14.43
2018-12-06T21:11:51.335Z,12.93
2018-12-06T21:14:22.759Z,14.20
2018-12-06T21:17:05.034Z,14.13
2018-12-06T21:19:44.239Z,14.33
2018-12-06T21:22:16.708Z,12.30
2018-12-06T21:24:56.238Z,15.13
2018-12-06T21:27:40.811Z,15.00
2018-12-06T21:30:15.059Z,14.20
2018-12-06T21:32:46.398Z,13.07
2018-12-06T21:35:25.294Z,14.37
2018-12-06T21:38:11.934Z,12.43
2018-12-06T21:40:44.500Z,11.13
2018-12-06T21:43:16.595Z,13.13
2018-12-06T21:45:54.435Z,14.57
2018-12-06T21:51:20.647Z,11.00
2018-12-06T21:53:52.784Z,12.83
2018-12-06T21:56:33.509Z,14.03
2018-12-06T21:59:11.731Z,17.10
2018-12-06T22:01:42.188Z,12.87
2018-12-06T22:07:13.939Z,15.63
2018-12-06T22:09:53.212Z,13.23
2018-12-06T22:12:26.500Z,12.77
2018-12-06T22:15:05.668Z,12.77
2018-12-06T22:17:46.162Z,13.07
2018-12-06T22:20:18.468Z,11.80
2018-12-06T22:22:50.824Z,11.00
2018-12-06T22:25:23.753Z,12.17
2018-12-06T22:28:02.330Z,11.07
2018-12-06T22:30:40.515Z,13.60
2018-12-06T22:33:11.913Z,12.70
2018-12-06T22:35:51.602Z,12.17
2018-12-06T22:38:34.043Z,11.97
2018-12-06T22:41:11.285Z,11.03
2018-12-06T22:43:50.234Z,10.80
2018-12-06T22:49:19.948Z,11.33
2018-12-06T22:51:51.222Z,12.47
2018-12-06T22:54:30.623Z,11.43
2018-12-06T23:02:49.073Z,11.17
2018-12-06T23:05:27.870Z,13.23
2018-12-06T23:08:06.272Z,11.13
2018-12-06T23:10:38.478Z,11.67
2018-12-06T23:13:11.451Z,13.77
2018-12-06T23:15:50.974Z,12.93
2018-12-06T23:18:29.972Z,14.40
2018-12-06T23:21:01.191Z,11.87
2018-12-06T23:23:33.077Z,12.57
2018-12-06T23:26:10.904Z,12.20
2018-12-06T23:28:50.754Z,12.13
2018-12-06T23:34:22.718Z,15.33
2018-12-06T23:37:02.068Z,11.40
2018-12-06T23:39:41.101Z,13.00
2018-12-06T23:45:11.901Z,9.30
2018-12-06T23:47:53.132Z,14.17
2018-12-06T23:50:27.478Z,11.43
2018-12-06T23:52:58.508Z,9.97
2018-12-06T23:55:37.137Z,11.27
2018-12-06T23:58:09.289Z,8.53
